createdAt,value
2019-03-16T00:00:05.704Z,95.50
2019-03-16T00:05:07.233Z,95.60
2019-03-16T00:10:09.452Z,95.80
2019-03-16T00:15:11.019Z,96.30
2019-03-16T00:20:12.392Z,96.40
2019-03-16T00:25:13.828Z,96.70
2019-03-16T00:30:15.259Z,96.70
2019-03-16T00:35:16.802Z,96.80
2019-03-16T00:40:18.419Z,96.90
2019-03-16T00:45:19.956Z,97.00
2019-03-16T00:50:21.365Z,97.00
2019-03-16T00:55:22.736Z,97.00
2019-03-16T01:00:25.063Z,97.00
2019-03-16T01:05:26.478Z,97.10
2019-03-16T01:10:28.283Z,97.10
2019-03-16T01:15:29.826Z,97.20
2019-03-16T01:20:31.276Z,97.10
2019-03-16T01:25:32.737Z,97.10
2019-03-16T01:30:34.239Z,97.20
2019-03-16T01:35:35.671Z,97.20
2019-03-16T01:40:37.068Z,97.10
2019-03-16T01:45:38.397Z,97.20
2019-03-16T01:50:39.707Z,97.20
2019-03-16T01:55:41.134Z,97.10
2019-03-16T02:00:42.876Z,97.10
2019-03-16T02:05:44.338Z,97.10
2019-03-16T02:10:48.391Z,97.00
2019-03-16T02:15:49.766Z,97.10
2019-03-16T02:20:51.496Z,97.00
2019-03-16T02:25:52.851Z,97.00
2019-03-16T02:30:54.203Z,96.90
2019-03-16T02:35:55.508Z,96.80
2019-03-16T02:40:56.868Z,96.70
2019-03-16T02:45:58.261Z,96.80
2019-03-16T02:51:00.673Z,96.80
2019-03-16T02:56:02.533Z,96.80
2019-03-16T03:01:04.052Z,96.90
2019-03-16T03:06:05.429Z,96.90
2019-03-16T03:11:08.297Z,97.00
2019-03-16T03:16:09.587Z,97.10
2019-03-16T03:21:11.160Z,97.10
2019-03-16T03:26:12.477Z,97.20
2019-03-16T03:31:15.671Z,97.30
2019-03-16T03:36:17.090Z,97.30
2019-03-16T03:41:20.351Z,97.40
2019-03-16T03:46:21.647Z,97.50
2019-03-16T03:51:23.254Z,97.50
2019-03-16T03:56:24.760Z,97.60
2019-03-16T04:01:26.760Z,97.60
2019-03-16T04:06:28.602Z,97.70
2019-03-16T04:11:31.315Z,97.70
2019-03-16T04:16:32.688Z,97.80
2019-03-16T04:21:36.217Z,97.80
2019-03-16T04:26:37.501Z,97.90
2019-03-16T04:31:39.340Z,97.90
2019-03-16T04:36:40.744Z,98.00
2019-03-16T04:41:44.848Z,98.10
2019-03-16T04:46:46.485Z,98.10
2019-03-16T04:51:47.941Z,98.20
2019-03-16T04:56:49.529Z,98.30
2019-03-16T05:01:52.209Z,98.30
2019-03-16T05:06:53.630Z,98.40
2019-03-16T05:11:55.136Z,98.40
2019-03-16T05:16:56.527Z,98.40
2019-03-16T05:21:57.857Z,98.50
2019-03-16T05:26:59.468Z,98.50
2019-03-16T05:32:00.847Z,98.60
2019-03-16T05:37:04.183Z,98.60
2019-03-16T05:42:06.030Z,98.80
2019-03-16T05:47:09.242Z,98.80
2019-03-16T05:52:10.650Z,99.00
2019-03-16T05:57:12.120Z,99.10
2019-03-16T06:02:13.559Z,99.60
2019-03-16T06:07:14.965Z,99.90
2019-03-16T06:12:16.523Z,99.90
2019-03-16T06:17:17.905Z,99.90
2019-03-16T06:22:20.503Z,99.90
2019-03-16T06:27:21.925Z,99.90
2019-03-16T06:32:23.226Z,99.90
2019-03-16T06:37:25.008Z,99.90
2019-03-16T06:42:26.370Z,99.80
2019-03-16T06:47:27.896Z,99.80
2019-03-16T06:52:29.846Z,99.70
2019-03-16T06:57:31.194Z,99.60
2019-03-16T07:02:33.087Z,99.60
2019-03-16T07:07:34.563Z,99.50
2019-03-16T07:12:35.951Z,99.50
2019-03-16T07:17:37.620Z,99.40
2019-03-16T07:22:39.119Z,99.30
2019-03-16T07:27:40.544Z,99.30
2019-03-16T07:32:41.969Z,99.30
2019-03-16T07:37:44.523Z,99.30
2019-03-16T07:42:46.163Z,99.30
2019-03-16T07:47:48.042Z,99.30
2019-03-16T07:52:49.560Z,99.30
2019-03-16T07:57:50.991Z,99.30
2019-03-16T08:02:52.891Z,99.30
2019-03-16T08:07:55.029Z,99.30
2019-03-16T08:12:56.827Z,99.30
2019-03-16T08:17:58.595Z,99.30
2019-03-16T08:22:59.879Z,99.30
2019-03-16T08:28:02.276Z,99.40
2019-03-16T08:33:03.945Z,99.30
2019-03-16T08:38:05.724Z,99.20
2019-03-16T08:43:09.382Z,99.00
2019-03-16T08:48:22.144Z,98.90
2019-03-16T08:53:15.168Z,98.70
2019-03-16T08:58:16.625Z,98.70
2019-03-16T09:03:19.700Z,98.70
2019-03-16T09:08:21.019Z,98.60
2019-03-16T09:13:22.361Z,98.70
2019-03-16T09:18:24.164Z,99.00
2019-03-16T09:23:25.554Z,98.90
2019-03-16T09:28:26.958Z,98.90
2019-03-16T09:33:28.447Z,98.60
2019-03-16T09:38:29.807Z,98.10
2019-03-16T09:43:31.818Z,97.80
2019-03-16T09:48:33.229Z,97.50
2019-03-16T09:53:34.596Z,97.00
2019-03-16T09:58:35.916Z,96.60
2019-03-16T10:03:37.520Z,95.90
2019-03-16T10:08:40.811Z,95.60
2019-03-16T10:13:42.251Z,95.50
2019-03-16T10:18:43.608Z,95.40
2019-03-16T10:23:46.416Z,95.30
2019-03-16T10:28:51.350Z,95.10
2019-03-16T10:33:54.622Z,94.90
2019-03-16T10:38:56.238Z,94.80
2019-03-16T10:44:16.279Z,94.50
2019-03-16T10:49:19.962Z,94.30
2019-03-16T10:54:21.344Z,94.30
2019-03-16T10:59:23.830Z,93.90
2019-03-16T11:04:25.559Z,94.00
2019-03-16T11:09:27.039Z,93.70
2019-03-16T11:14:28.392Z,93.70
2019-03-16T11:19:30.046Z,93.60
2019-03-16T11:24:31.600Z,93.30
2019-03-16T11:29:33.294Z,93.40
2019-03-16T11:34:34.914Z,93.30
2019-03-16T11:39:36.642Z,93.20
2019-03-16T11:44:37.928Z,93.10
2019-03-16T11:49:39.479Z,93.00
2019-03-16T11:54:40.807Z,92.80
2019-03-16T11:59:42.356Z,92.90
2019-03-16T12:04:43.781Z,92.60
2019-03-16T12:09:45.080Z,92.40
2019-03-16T12:14:46.534Z,91.90
2019-03-16T12:19:48.458Z,92.00
2019-03-16T12:24:51.117Z,92.30
2019-03-16T12:29:52.550Z,92.10
2019-03-16T12:34:54.041Z,91.80
2019-03-16T12:39:55.654Z,91.60
2019-03-16T12:44:58.113Z,91.00
2019-03-16T12:49:59.676Z,91.20
2019-03-16T12:55:01.071Z,90.70
2019-03-16T13:00:16.138Z,90.40
2019-03-16T13:05:17.843Z,90.40
2019-03-16T13:10:22.724Z,90.10
2019-03-16T13:15:24.034Z,90.20
2019-03-16T13:20:25.818Z,89.60
2019-03-16T13:25:27.498Z,89.40
2019-03-16T13:30:28.844Z,89.60
2019-03-16T13:35:30.421Z,88.40
2019-03-16T13:40:31.720Z,87.60
2019-03-16T13:45:33.417Z,87.90
2019-03-16T13:50:53.681Z,88.10
2019-03-16T13:55:54.970Z,88.20
2019-03-16T14:00:56.305Z,88.00
2019-03-16T14:05:57.603Z,87.90
2019-03-16T14:10:59.010Z,87.20
2019-03-16T14:16:00.955Z,87.20
2019-03-16T14:21:02.599Z,87.40
2019-03-16T14:26:06.101Z,87.10
2019-03-16T14:31:07.384Z,87.00
2019-03-16T14:36:08.758Z,85.70
2019-03-16T14:41:12.316Z,85.20
2019-03-16T14:46:15.018Z,85.00
2019-03-16T14:51:16.521Z,85.00
2019-03-16T14:56:17.835Z,84.70
2019-03-16T15:01:19.433Z,84.90
2019-03-16T15:06:24.246Z,85.00
2019-03-16T15:11:25.768Z,84.50
2019-03-16T15:16:27.140Z,84.60
2019-03-16T15:21:28.630Z,83.80
2019-03-16T15:26:30.047Z,83.70
2019-03-16T15:31:31.499Z,83.70
2019-03-16T15:36:32.963Z,83.00
2019-03-16T15:41:34.512Z,82.30
2019-03-16T15:46:36.197Z,81.60
2019-03-16T15:51:38.353Z,81.80
2019-03-16T15:56:39.964Z,81.60
2019-03-16T16:01:41.509Z,81.30
2019-03-16T16:06:44.096Z,81.50
2019-03-16T16:11:45.538Z,81.60
2019-03-16T16:16:47.173Z,81.90
2019-03-16T16:21:48.639Z,81.50
2019-03-16T16:26:49.957Z,81.50
2019-03-16T16:31:51.237Z,81.80
2019-03-16T16:36:52.683Z,81.80
2019-03-16T16:41:54.199Z,82.20
2019-03-16T16:46:57.318Z,82.70
2019-03-16T16:51:58.616Z,82.60
2019-03-16T16:56:59.979Z,83.10
2019-03-16T17:02:01.522Z,83.20
2019-03-16T17:07:02.982Z,83.50
2019-03-16T17:12:04.829Z,83.60
2019-03-16T17:17:34.555Z,84.00
2019-03-16T17:22:28.133Z,84.30
2019-03-16T17:27:29.443Z,84.70
2019-03-16T17:32:30.951Z,84.90
2019-03-16T17:37:32.279Z,85.20
2019-03-16T17:42:33.666Z,85.60
2019-03-16T17:47:34.964Z,85.70
2019-03-16T17:52:36.406Z,86.00
2019-03-16T17:57:45.088Z,86.10
2019-03-16T18:02:52.820Z,86.40
2019-03-16T18:07:55.040Z,86.50
2019-03-16T18:12:56.340Z,86.80
2019-03-16T18:18:01.655Z,86.90
2019-03-16T18:23:03.303Z,87.00
2019-03-16T18:28:04.715Z,87.20
2019-03-16T18:33:06.137Z,87.60
2019-03-16T18:38:07.575Z,87.70
2019-03-16T18:43:27.605Z,88.10
2019-03-16T18:48:30.391Z,88.10
2019-03-16T18:53:32.168Z,88.10
2019-03-16T18:59:47.722Z,88.10
2019-03-16T19:03:37.127Z,88.10
2019-03-16T19:08:39.053Z,88.30
2019-03-16T19:13:40.455Z,88.10
2019-03-16T19:18:41.865Z,89.20
2019-03-16T19:23:43.432Z,88.40
2019-03-16T19:28:46.709Z,88.50
2019-03-16T19:33:48.200Z,88.30
2019-03-16T19:38:49.518Z,88.30
2019-03-16T19:43:50.888Z,88.40
2019-03-16T19:48:52.506Z,88.30
2019-03-16T19:53:56.040Z,88.20
2019-03-16T19:59:00.880Z,88.10
2019-03-16T20:04:02.966Z,88.30
2019-03-16T20:09:05.727Z,88.20
2019-03-16T20:19:27.292Z,88.20
2019-03-16T20:24:29.639Z,88.10
2019-03-16T20:29:31.110Z,88.20
2019-03-16T20:34:32.575Z,88.50
2019-03-16T20:39:34.088Z,88.60
2019-03-16T20:44:36.512Z,88.70
2019-03-16T20:49:38.017Z,88.90
2019-03-16T20:54:41.268Z,89.10
2019-03-16T20:59:43.539Z,89.10
2019-03-16T21:04:46.659Z,89.10
2019-03-16T21:09:48.263Z,89.30
2019-03-16T21:14:51.631Z,89.40
2019-03-16T21:19:53.181Z,89.40
2019-03-16T21:24:54.576Z,89.40
2019-03-16T21:29:56.039Z,89.50
2019-03-16T21:34:57.835Z,89.60
2019-03-16T21:39:59.214Z,89.50
2019-03-16T21:45:13.814Z,89.50
2019-03-16T21:50:15.905Z,89.50
2019-03-16T21:55:17.942Z,89.40
2019-03-16T22:00:20.688Z,89.50
2019-03-16T22:05:40.925Z,89.30
2019-03-16T22:10:43.417Z,89.30
2019-03-16T22:15:49.353Z,89.40
2019-03-16T22:20:52.732Z,89.50
2019-03-16T22:25:56.270Z,89.70
2019-03-16T22:30:57.568Z,89.70
2019-03-16T22:35:58.959Z,89.80
2019-03-16T22:41:00.308Z,90.00
2019-03-16T22:46:01.714Z,90.00
2019-03-16T22:51:03.352Z,90.10
2019-03-16T22:56:05.073Z,90.10
2019-03-16T23:01:06.796Z,90.00
2019-03-16T23:06:08.267Z,89.70
2019-03-16T23:11:10.730Z,89.20
2019-03-16T23:16:12.092Z,89.10
2019-03-16T23:21:13.705Z,88.90
2019-03-16T23:26:15.127Z,88.30
2019-03-16T23:31:16.769Z,87.60
2019-03-16T23:36:18.237Z,87.50
2019-03-16T23:41:19.631Z,87.00
2019-03-16T23:46:20.961Z,85.80
2019-03-16T23:51:22.335Z,84.90
2019-03-16T23:56:23.774Z,84.40
